sensor_id;sensor_type;location;lat;lon;timestamp;P1;durP1;ratioP1;P2;durP2;ratioP2
3645;SDS011;1839;48.060;11.662;2022-07-03T05:01:21;9.30;;;2.83;;
3645;SDS011;1839;48.060;11.662;2022-07-03T05:03:48;11.17;;;3.93;;
3645;SDS011;1839;48.060;11.662;2022-07-03T05:06:15;11.07;;;3.37;;
3645;SDS011;1839;48.060;11.662;2022-07-03T05:08:42;12.10;;;5.60;;
3645;SDS011;1839;48.060;11.662;2022-07-03T05:11:10;16.37;;;7.50;;
3645;SDS011;1839;48.060;11.662;2022-07-03T05:13:37;10.60;;;4.60;;
3645;SDS011;1839;48.060;11.662;2022-07-03T05:16:04;12.37;;;4.70;;
3645;SDS011;1839;48.060;11.662;2022-07-03T05:18:33;12.97;;;4.10;;
3645;SDS011;1839;48.060;11.662;2022-07-03T05:21:00;9.37;;;2.87;;
3645;SDS011;1839;48.060;11.662;2022-07-03T05:23:28;9.67;;;2.40;;
3645;SDS011;1839;48.060;11.662;2022-07-03T05:25:55;10.20;;;3.00;;
3645;SDS011;1839;48.060;11.662;2022-07-03T05:28:23;10.10;;;2.80;;
3645;SDS011;1839;48.060;11.662;2022-07-03T05:30:50;9.70;;;2.70;;
3645;SDS011;1839;48.060;11.662;2022-07-03T05:33:18;8.50;;;2.30;;
3645;SDS011;1839;48.060;11.662;2022-07-03T05:35:46;7.57;;;2.27;;
3645;SDS011;1839;48.060;11.662;2022-07-03T05:38:13;7.57;;;1.80;;
3645;SDS011;1839;48.060;11.662;2022-07-03T05:41:02;15.57;;;2.53;;
3645;SDS011;1839;48.060;11.662;2022-07-03T05:43:29;11.30;;;2.50;;
3645;SDS011;1839;48.060;11.662;2022-07-03T05:45:56;7.80;;;2.00;;
3645;SDS011;1839;48.060;11.662;2022-07-03T05:48:23;8.47;;;2.30;;
3645;SDS011;1839;48.060;11.662;2022-07-03T05:50:52;8.37;;;2.23;;
3645;SDS011;1839;48.060;11.662;2022-07-03T05:53:19;11.23;;;2.40;;
3645;SDS011;1839;48.060;11.662;2022-07-03T05:55:46;8.80;;;2.13;;
3645;SDS011;1839;48.060;11.662;2022-07-03T05:58:13;9.30;;;2.23;;
3645;SDS011;1839;48.060;11.662;2022-07-03T06:00:41;6.40;;;2.07;;
3645;SDS011;1839;48.060;11.662;2022-07-03T06:03:08;6.43;;;1.97;;
3645;SDS011;1839;48.060;11.662;2022-07-03T06:05:35;7.03;;;1.73;;
3645;SDS011;1839;48.060;11.662;2022-07-03T06:08:05;6.87;;;1.90;;
3645;SDS011;1839;48.060;11.662;2022-07-03T06:10:32;6.37;;;1.80;;
3645;SDS011;1839;48.060;11.662;2022-07-03T06:13:00;7.57;;;1.80;;
3645;SDS011;1839;48.060;11.662;2022-07-03T06:15:27;6.60;;;1.93;;
3645;SDS011;1839;48.060;11.662;2022-07-03T06:17:54;6.47;;;2.07;;
3645;SDS011;1839;48.060;11.662;2022-07-03T06:20:21;6.40;;;1.90;;
3645;SDS011;1839;48.060;11.662;2022-07-03T06:22:48;6.97;;;2.07;;
3645;SDS011;1839;48.060;11.662;2022-07-03T06:25:17;6.07;;;1.77;;
3645;SDS011;1839;48.060;11.662;2022-07-03T06:27:44;6.73;;;1.90;;
3645;SDS011;1839;48.060;11.662;2022-07-03T06:30:12;6.53;;;2.00;;
3645;SDS011;1839;48.060;11.662;2022-07-03T06:32:39;5.83;;;1.80;;
3645;SDS011;1839;48.060;11.662;2022-07-03T06:35:06;6.10;;;2.00;;
3645;SDS011;1839;48.060;11.662;2022-07-03T06:37:34;5.03;;;1.50;;
3645;SDS011;1839;48.060;11.662;2022-07-03T06:40:01;5.20;;;1.60;;
3645;SDS011;1839;48.060;11.662;2022-07-03T06:42:29;5.60;;;1.70;;
3645;SDS011;1839;48.060;11.662;2022-07-03T06:44:56;6.03;;;1.97;;
3645;SDS011;1839;48.060;11.662;2022-07-03T06:47:24;5.70;;;1.90;;
3645;SDS011;1839;48.060;11.662;2022-07-03T06:49:51;6.10;;;1.80;;
3645;SDS011;1839;48.060;11.662;2022-07-03T06:52:18;5.70;;;2.00;;
3645;SDS011;1839;48.060;11.662;2022-07-03T06:54:45;5.00;;;1.40;;
3645;SDS011;1839;48.060;11.662;2022-07-03T06:57:13;5.13;;;1.70;;
3645;SDS011;1839;48.060;11.662;2022-07-03T06:59:41;6.77;;;1.87;;
3645;SDS011;1839;48.060;11.662;2022-07-03T07:02:08;5.17;;;1.50;;
3645;SDS011;1839;48.060;11.662;2022-07-03T07:04:37;7.13;;;1.90;;
3645;SDS011;1839;48.060;11.662;2022-07-03T07:07:04;4.90;;;1.57;;
3645;SDS011;1839;48.060;11.662;2022-07-03T07:09:31;5.53;;;1.43;;
3645;SDS011;1839;48.060;11.662;2022-07-03T07:11:58;4.90;;;1.37;;
3645;SDS011;1839;48.060;11.662;2022-07-03T07:14:26;5.10;;;1.80;;
3645;SDS011;1839;48.060;11.662;2022-07-03T07:16:54;5.53;;;2.00;;
3645;SDS011;1839;48.060;11.662;2022-07-03T07:19:21;4.97;;;1.80;;
3645;SDS011;1839;48.060;11.662;2022-07-03T07:21:48;5.83;;;1.87;;
3645;SDS011;1839;48.060;11.662;2022-07-03T07:24:16;6.17;;;1.93;;
3645;SDS011;1839;48.060;11.662;2022-07-03T07:26:43;5.97;;;1.90;;
3645;SDS011;1839;48.060;11.662;2022-07-03T07:29:10;5.07;;;1.60;;
3645;SDS011;1839;48.060;11.662;2022-07-03T07:31:37;5.90;;;2.00;;
3645;SDS011;1839;48.060;11.662;2022-07-03T07:34:06;5.97;;;2.27;;
3645;SDS011;1839;48.060;11.662;2022-07-03T07:36:33;6.77;;;2.10;;
3645;SDS011;1839;48.060;11.662;2022-07-03T07:39:00;5.03;;;1.60;;
3645;SDS011;1839;48.060;11.662;2022-07-03T07:41:27;5.70;;;1.80;;
3645;SDS011;1839;48.060;11.662;2022-07-03T07:43:54;6.77;;;2.00;;
3645;SDS011;1839;48.060;11.662;2022-07-03T07:46:22;4.50;;;1.70;;
3645;SDS011;1839;48.060;11.662;2022-07-03T07:48:49;5.90;;;1.70;;
3645;SDS011;1839;48.060;11.662;2022-07-03T07:51:17;5.40;;;1.83;;
3645;SDS011;1839;48.060;11.662;2022-07-03T07:53:44;6.20;;;1.70;;
3645;SDS011;1839;48.060;11.662;2022-07-03T07:56:12;6.20;;;1.83;;
3645;SDS011;1839;48.060;11.662;2022-07-03T07:58:39;6.07;;;1.70;;
3645;SDS011;1839;48.060;11.662;2022-07-03T08:01:06;4.73;;;1.80;;
3645;SDS011;1839;48.060;11.662;2022-07-03T08:03:51;6.30;;;1.80;;
3645;SDS011;1839;48.060;11.662;2022-07-03T08:06:33;6.07;;;1.70;;
3645;SDS011;1839;48.060;11.662;2022-07-03T08:09:00;5.53;;;2.03;;
3645;SDS011;1839;48.060;11.662;2022-07-03T08:11:28;6.73;;;1.90;;
3645;SDS011;1839;48.060;11.662;2022-07-03T08:13:55;5.70;;;1.83;;
3645;SDS011;1839;48.060;11.662;2022-07-03T08:16:22;4.50;;;1.60;;
3645;SDS011;1839;48.060;11.662;2022-07-03T08:18:49;4.70;;;1.70;;
3645;SDS011;1839;48.060;11.662;2022-07-03T08:21:18;6.20;;;2.07;;
3645;SDS011;1839;48.060;11.662;2022-07-03T08:23:47;5.57;;;1.90;;
3645;SDS011;1839;48.060;11.662;2022-07-03T08:26:14;4.07;;;1.40;;
3645;SDS011;1839;48.060;11.662;2022-07-03T08:28:41;4.50;;;1.50;;
3645;SDS011;1839;48.060;11.662;2022-07-03T08:31:08;4.37;;;1.40;;
3645;SDS011;1839;48.060;11.662;2022-07-03T08:33:36;5.70;;;1.57;;
3645;SDS011;1839;48.060;11.662;2022-07-03T08:36:04;9.70;;;1.97;;
3645;SDS011;1839;48.060;11.662;2022-07-03T08:38:31;4.63;;;1.73;;
3645;SDS011;1839;48.060;11.662;2022-07-03T08:41:01;4.13;;;1.50;;
3645;SDS011;1839;48.060;11.662;2022-07-03T08:43:29;4.27;;;1.53;;
3645;SDS011;1839;48.060;11.662;2022-07-03T08:45:57;4.50;;;1.43;;
3645;SDS011;1839;48.060;11.662;2022-07-03T08:48:25;4.80;;;1.53;;
3645;SDS011;1839;48.060;11.662;2022-07-03T08:50:52;4.70;;;1.70;;
3645;SDS011;1839;48.060;11.662;2022-07-03T08:53:20;4.20;;;1.33;;
3645;SDS011;1839;48.060;11.662;2022-07-03T08:55:48;4.27;;;1.60;;
3645;SDS011;1839;48.060;11.662;2022-07-03T08:58:17;4.40;;;1.50;;
3645;SDS011;1839;48.060;11.662;2022-07-03T09:00:45;4.37;;;1.23;;
3645;SDS011;1839;48.060;11.662;2022-07-03T09:03:12;5.93;;;1.67;;
3645;SDS011;1839;48.060;11.662;2022-07-03T09:05:41;7.10;;;1.87;;
3645;SDS011;1839;48.060;11.662;2022-07-03T09:08:09;6.17;;;2.30;;
3645;SDS011;1839;48.060;11.662;2022-07-03T09:10:36;4.73;;;1.57;;
3645;SDS011;1839;48.060;11.662;2022-07-03T09:13:03;4.00;;;1.40;;
3645;SDS011;1839;48.060;11.662;2022-07-03T09:15:32;6.10;;;1.70;;
3645;SDS011;1839;48.060;11.662;2022-07-03T09:17:59;4.43;;;1.60;;
3645;SDS011;1839;48.060;11.662;2022-07-03T09:20:28;5.57;;;1.40;;
3645;SDS011;1839;48.060;11.662;2022-07-03T09:22:57;6.23;;;2.40;;
3645;SDS011;1839;48.060;11.662;2022-07-03T09:25:34;5.30;;;1.67;;
3645;SDS011;1839;48.060;11.662;2022-07-03T09:28:02;4.10;;;1.50;;
3645;SDS011;1839;48.060;11.662;2022-07-03T09:30:29;4.00;;;1.50;;
3645;SDS011;1839;48.060;11.662;2022-07-03T09:32:58;4.13;;;1.43;;
3645;SDS011;1839;48.060;11.662;2022-07-03T09:35:25;5.13;;;1.40;;
3645;SDS011;1839;48.060;11.662;2022-07-03T09:37:54;4.07;;;1.33;;
3645;SDS011;1839;48.060;11.662;2022-07-03T09:40:21;4.80;;;1.50;;
3645;SDS011;1839;48.060;11.662;2022-07-03T09:42:59;4.10;;;1.33;;
3645;SDS011;1839;48.060;11.662;2022-07-03T09:45:26;5.33;;;1.30;;
3645;SDS011;1839;48.060;11.662;2022-07-03T09:47:53;4.10;;;1.20;;
3645;SDS011;1839;48.060;11.662;2022-07-03T09:50:22;5.67;;;1.87;;
3645;SDS011;1839;48.060;11.662;2022-07-03T09:52:49;4.57;;;1.40;;
3645;SDS011;1839;48.060;11.662;2022-07-03T09:55:17;3.70;;;1.00;;
3645;SDS011;1839;48.060;11.662;2022-07-03T09:57:46;4.47;;;1.43;;
3645;SDS011;1839;48.060;11.662;2022-07-03T10:00:25;3.80;;;1.20;;
3645;SDS011;1839;48.060;11.662;2022-07-03T10:02:56;5.60;;;1.30;;
3645;SDS011;1839;48.060;11.662;2022-07-03T10:05:26;3.80;;;1.20;;
3645;SDS011;1839;48.060;11.662;2022-07-03T10:07:54;3.70;;;1.00;;
3645;SDS011;1839;48.060;11.662;2022-07-03T10:10:22;5.23;;;1.30;;
3645;SDS011;1839;48.060;11.662;2022-07-03T10:12:50;5.70;;;1.40;;
3645;SDS011;1839;48.060;11.662;2022-07-03T10:15:18;4.17;;;1.10;;
3645;SDS011;1839;48.060;11.662;2022-07-03T10:17:49;3.30;;;0.97;;
3645;SDS011;1839;48.060;11.662;2022-07-03T10:20:19;3.70;;;1.00;;
3645;SDS011;1839;48.060;11.662;2022-07-03T10:22:49;3.10;;;0.90;;
3645;SDS011;1839;48.060;11.662;2022-07-03T10:25:16;3.73;;;1.10;;
3645;SDS011;1839;48.060;11.662;2022-07-03T10:27:44;3.60;;;0.97;;
3645;SDS011;1839;48.060;11.662;2022-07-03T10:30:12;3.63;;;1.13;;
3645;SDS011;1839;48.060;11.662;2022-07-03T10:32:39;4.53;;;1.58;;
3645;SDS011;1839;48.060;11.662;2022-07-03T10:35:07;3.83;;;1.27;;
3645;SDS011;1839;48.060;11.662;2022-07-03T10:37:38;4.10;;;1.40;;
3645;SDS011;1839;48.060;11.662;2022-07-03T10:40:10;3.45;;;1.13;;
3645;SDS011;1839;48.060;11.662;2022-07-03T10:43:05;3.28;;;1.00;;
3645;SDS011;1839;48.060;11.662;2022-07-03T10:46:10;2.83;;;0.80;;
3645;SDS011;1839;48.060;11.662;2022-07-03T10:51:23;3.20;;;0.93;;
3645;SDS011;1839;48.060;11.662;2022-07-03T10:53:50;3.50;;;1.08;;
3645;SDS011;1839;48.060;11.662;2022-07-03T10:59:21;4.45;;;1.10;;
3645;SDS011;1839;48.060;11.662;2022-07-03T11:01:48;4.05;;;0.90;;
3645;SDS011;1839;48.060;11.662;2022-07-03T11:04:15;3.45;;;1.00;;
3645;SDS011;1839;48.060;11.662;2022-07-03T11:09:27;3.45;;;0.90;;
3645;SDS011;1839;48.060;11.662;2022-07-03T11:11:54;3.75;;;1.20;;
3645;SDS011;1839;48.060;11.662;2022-07-03T11:14:24;2.95;;;0.90;;
3645;SDS011;1839;48.060;11.662;2022-07-03T11:19:33;3.55;;;1.02;;
3645;SDS011;1839;48.060;11.662;2022-07-03T11:22:01;4.95;;;1.15;;
3645;SDS011;1839;48.060;11.662;2022-07-03T11:24:37;3.08;;;0.80;;
3645;SDS011;1839;48.060;11.662;2022-07-03T11:29:57;3.20;;;0.90;;
3645;SDS011;1839;48.060;11.662;2022-07-03T11:32:45;3.33;;;0.90;;
3645;SDS011;1839;48.060;11.662;2022-07-03T11:38:00;3.13;;;1.00;;
3645;SDS011;1839;48.060;11.662;2022-07-03T11:40:27;2.78;;;0.82;;
3645;SDS011;1839;48.060;11.662;2022-07-03T11:42:56;3.25;;;0.90;;
3645;SDS011;1839;48.060;11.662;2022-07-03T11:45:24;2.63;;;0.90;;
3645;SDS011;1839;48.060;11.662;2022-07-03T11:47:54;2.65;;;0.80;;
3645;SDS011;1839;48.060;11.662;2022-07-03T11:50:30;2.67;;;0.80;;
3645;SDS011;1839;48.060;11.662;2022-07-03T11:53:14;2.50;;;0.73;;
3645;SDS011;1839;48.060;11.662;2022-07-03T11:55:45;3.78;;;0.60;;
3645;SDS011;1839;48.060;11.662;2022-07-03T11:58:12;1.88;;;0.60;;
3645;SDS011;1839;48.060;11.662;2022-07-03T12:00:41;2.78;;;0.80;;
3645;SDS011;1839;48.060;11.662;2022-07-03T12:03:09;2.45;;;1.00;;
3645;SDS011;1839;48.060;11.662;2022-07-03T12:05:49;1.85;;;0.80;;
3645;SDS011;1839;48.060;11.662;2022-07-03T12:08:20;2.17;;;0.70;;
3645;SDS011;1839;48.060;11.662;2022-07-03T12:10:48;1.70;;;0.70;;
3645;SDS011;1839;48.060;11.662;2022-07-03T12:13:18;1.70;;;0.70;;
3645;SDS011;1839;48.060;11.662;2022-07-03T12:15:47;2.60;;;0.80;;
3645;SDS011;1839;48.060;11.662;2022-07-03T12:18:15;1.70;;;0.70;;
3645;SDS011;1839;48.060;11.662;2022-07-03T12:20:42;1.85;;;0.70;;
3645;SDS011;1839;48.060;11.662;2022-07-03T12:23:09;1.40;;;0.50;;
3645;SDS011;1839;48.060;11.662;2022-07-03T12:25:38;2.53;;;0.60;;
3645;SDS011;1839;48.060;11.662;2022-07-03T12:28:05;1.80;;;0.80;;
3645;SDS011;1839;48.060;11.662;2022-07-03T12:30:33;1.60;;;0.60;;
3645;SDS011;1839;48.060;11.662;2022-07-03T12:33:02;1.85;;;0.70;;
3645;SDS011;1839;48.060;11.662;2022-07-03T12:35:29;1.90;;;0.70;;
3645;SDS011;1839;48.060;11.662;2022-07-03T12:37:57;3.08;;;0.75;;
3645;SDS011;1839;48.060;11.662;2022-07-03T12:40:24;1.63;;;0.60;;
3645;SDS011;1839;48.060;11.662;2022-07-03T12:42:51;2.50;;;0.65;;
3645;SDS011;1839;48.060;11.662;2022-07-03T12:45:19;1.55;;;0.75;;
3645;SDS011;1839;48.060;11.662;2022-07-03T12:47:56;1.80;;;0.80;;
3645;SDS011;1839;48.060;11.662;2022-07-03T12:50:25;2.28;;;0.68;;
3645;SDS011;1839;48.060;11.662;2022-07-03T12:52:53;1.50;;;0.60;;
3645;SDS011;1839;48.060;11.662;2022-07-03T12:55:23;1.73;;;0.60;;
3645;SDS011;1839;48.060;11.662;2022-07-03T13:00:47;1.40;;;0.60;;
3645;SDS011;1839;48.060;11.662;2022-07-03T13:03:25;5.22;;;0.80;;
3645;SDS011;1839;48.060;11.662;2022-07-03T13:05:54;1.88;;;0.70;;
3645;SDS011;1839;48.060;11.662;2022-07-03T13:08:21;1.30;;;0.60;;
3645;SDS011;1839;48.060;11.662;2022-07-03T13:10:54;1.60;;;0.70;;
3645;SDS011;1839;48.060;11.662;2022-07-03T13:13:22;2.00;;;0.60;;
3645;SDS011;1839;48.060;11.662;2022-07-03T13:15:49;5.32;;;0.70;;
3645;SDS011;1839;48.060;11.662;2022-07-03T13:18:16;1.75;;;0.70;;
3645;SDS011;1839;48.060;11.662;2022-07-03T13:20:43;3.97;;;0.80;;
3645;SDS011;1839;48.060;11.662;2022-07-03T13:23:12;1.52;;;0.70;;
3645;SDS011;1839;48.060;11.662;2022-07-03T13:25:39;1.58;;;0.70;;
3645;SDS011;1839;48.060;11.662;2022-07-03T13:28:08;1.50;;;0.65;;
3645;SDS011;1839;48.060;11.662;2022-07-03T13:30:36;1.40;;;0.75;;
3645;SDS011;1839;48.060;11.662;2022-07-03T13:33:03;1.30;;;0.70;;
3645;SDS011;1839;48.060;11.662;2022-07-03T13:35:31;1.55;;;0.60;;
3645;SDS011;1839;48.060;11.662;2022-07-03T13:37:58;1.40;;;0.60;;
3645;SDS011;1839;48.060;11.662;2022-07-03T13:40:27;2.97;;;0.73;;
3645;SDS011;1839;48.060;11.662;2022-07-03T13:42:54;1.60;;;0.80;;
3645;SDS011;1839;48.060;11.662;2022-07-03T13:45:21;3.15;;;0.70;;
3645;SDS011;1839;48.060;11.662;2022-07-03T13:47:48;1.30;;;0.70;;
3645;SDS011;1839;48.060;11.662;2022-07-03T13:50:16;1.67;;;0.80;;
3645;SDS011;1839;48.060;11.662;2022-07-03T13:52:43;1.02;;;0.60;;
3645;SDS011;1839;48.060;11.662;2022-07-03T13:55:11;1.17;;;0.60;;
3645;SDS011;1839;48.060;11.662;2022-07-03T13:57:39;2.63;;;0.80;;
3645;SDS011;1839;48.060;11.662;2022-07-03T14:00:09;2.30;;;0.73;;
3645;SDS011;1839;48.060;11.662;2022-07-03T14:02:37;3.65;;;0.60;;
3645;SDS011;1839;48.060;11.662;2022-07-03T14:05:07;1.23;;;0.70;;
3645;SDS011;1839;48.060;11.662;2022-07-03T14:07:35;1.20;;;0.70;;
3645;SDS011;1839;48.060;11.662;2022-07-03T14:10:02;1.90;;;0.60;;
3645;SDS011;1839;48.060;11.662;2022-07-03T14:12:30;1.10;;;0.60;;
3645;SDS011;1839;48.060;11.662;2022-07-03T14:14:59;3.15;;;0.80;;
3645;SDS011;1839;48.060;11.662;2022-07-03T14:17:27;1.00;;;0.50;;
3645;SDS011;1839;48.060;11.662;2022-07-03T14:19:54;1.75;;;0.88;;
3645;SDS011;1839;48.060;11.662;2022-07-03T14:22:21;1.60;;;0.70;;
3645;SDS011;1839;48.060;11.662;2022-07-03T14:24:48;1.88;;;0.80;;
3645;SDS011;1839;48.060;11.662;2022-07-03T14:27:15;1.50;;;0.70;;
3645;SDS011;1839;48.060;11.662;2022-07-03T14:30:02;1.23;;;0.60;;
3645;SDS011;1839;48.060;11.662;2022-07-03T14:32:47;7.40;;;0.80;;
3645;SDS011;1839;48.060;11.662;2022-07-03T14:35:14;1.52;;;0.75;;
3645;SDS011;1839;48.060;11.662;2022-07-03T14:37:42;2.53;;;0.70;;
3645;SDS011;1839;48.060;11.662;2022-07-03T14:40:09;1.55;;;0.70;;
3645;SDS011;1839;48.060;11.662;2022-07-03T14:42:36;2.63;;;0.70;;
3645;SDS011;1839;48.060;11.662;2022-07-03T14:45:06;1.10;;;0.68;;
3645;SDS011;1839;48.060;11.662;2022-07-03T14:47:33;3.13;;;0.82;;
3645;SDS011;1839;48.060;11.662;2022-07-03T14:50:00;1.58;;;0.63;;
3645;SDS011;1839;48.060;11.662;2022-07-03T14:52:28;2.92;;;0.80;;
3645;SDS011;1839;48.060;11.662;2022-07-03T14:54:56;2.00;;;0.80;;
3645;SDS011;1839;48.060;11.662;2022-07-03T14:57:24;4.20;;;0.60;;
3645;SDS011;1839;48.060;11.662;2022-07-03T15:00:02;1.25;;;0.60;;
3645;SDS011;1839;48.060;11.662;2022-07-03T15:02:33;2.35;;;0.90;;
3645;SDS011;1839;48.060;11.662;2022-07-03T15:05:05;4.68;;;0.70;;
3645;SDS011;1839;48.060;11.662;2022-07-03T15:07:34;3.40;;;1.20;;
3645;SDS011;1839;48.060;11.662;2022-07-03T15:10:04;2.40;;;0.90;;
3645;SDS011;1839;48.060;11.662;2022-07-03T15:12:32;1.90;;;0.70;;
3645;SDS011;1839;48.060;11.662;2022-07-03T15:15:00;3.05;;;0.70;;
3645;SDS011;1839;48.060;11.662;2022-07-03T15:17:28;2.58;;;0.70;;
3645;SDS011;1839;48.060;11.662;2022-07-03T15:19:56;1.33;;;0.60;;
3645;SDS011;1839;48.060;11.662;2022-07-03T15:22:25;1.38;;;0.80;;
3645;SDS011;1839;48.060;11.662;2022-07-03T15:24:53;3.10;;;0.70;;
3645;SDS011;1839;48.060;11.662;2022-07-03T15:27:21;1.58;;;0.70;;
3645;SDS011;1839;48.060;11.662;2022-07-03T15:29:49;1.40;;;0.70;;
3645;SDS011;1839;48.060;11.662;2022-07-03T15:32:16;2.53;;;0.85;;
3645;SDS011;1839;48.060;11.662;2022-07-03T15:34:44;2.30;;;0.82;;
3645;SDS011;1839;48.060;11.662;2022-07-03T15:37:22;2.92;;;1.13;;
3645;SDS011;1839;48.060;11.662;2022-07-03T15:39:53;1.75;;;0.90;;
3645;SDS011;1839;48.060;11.662;2022-07-03T15:42:24;1.30;;;0.65;;
3645;SDS011;1839;48.060;11.662;2022-07-03T15:44:57;2.13;;;1.00;;
3645;SDS011;1839;48.060;11.662;2022-07-03T15:47:31;2.33;;;0.70;;
3645;SDS011;1839;48.060;11.662;2022-07-03T15:50:01;2.15;;;0.70;;
3645;SDS011;1839;48.060;11.662;2022-07-03T15:52:30;1.58;;;0.85;;
3645;SDS011;1839;48.060;11.662;2022-07-03T15:54:58;2.25;;;0.80;;
3645;SDS011;1839;48.060;11.662;2022-07-03T15:57:34;3.08;;;0.90;;
3645;SDS011;1839;48.060;11.662;2022-07-03T16:00:04;2.55;;;0.80;;
3645;SDS011;1839;48.060;11.662;2022-07-03T16:02:35;2.05;;;0.95;;
3645;SDS011;1839;48.060;11.662;2022-07-03T16:05:05;3.35;;;1.38;;
3645;SDS011;1839;48.060;11.662;2022-07-03T16:07:37;3.00;;;1.40;;
3645;SDS011;1839;48.060;11.662;2022-07-03T16:10:05;2.58;;;1.05;;
3645;SDS011;1839;48.060;11.662;2022-07-03T16:12:33;5.53;;;1.10;;
3645;SDS011;1839;48.060;11.662;2022-07-03T16:15:02;2.67;;;1.00;;
3645;SDS011;1839;48.060;11.662;2022-07-03T16:17:31;4.80;;;1.10;;
3645;SDS011;1839;48.060;11.662;2022-07-03T16:19:58;4.05;;;1.00;;
3645;SDS011;1839;48.060;11.662;2022-07-03T16:22:27;2.47;;;0.82;;
3645;SDS011;1839;48.060;11.662;2022-07-03T16:24:56;3.28;;;1.10;;
3645;SDS011;1839;48.060;11.662;2022-07-03T16:27:24;3.42;;;1.02;;
3645;SDS011;1839;48.060;11.662;2022-07-03T16:29:53;3.67;;;1.40;;
3645;SDS011;1839;48.060;11.662;2022-07-03T16:32:22;6.32;;;1.50;;
3645;SDS011;1839;48.060;11.662;2022-07-03T16:34:53;4.80;;;1.67;;
3645;SDS011;1839;48.060;11.662;2022-07-03T16:37:24;5.55;;;1.90;;
3645;SDS011;1839;48.060;11.662;2022-07-03T16:39:53;5.05;;;1.55;;
3645;SDS011;1839;48.060;11.662;2022-07-03T16:42:24;5.80;;;1.50;;
3645;SDS011;1839;48.060;11.662;2022-07-03T16:44:54;4.25;;;1.38;;
3645;SDS011;1839;48.060;11.662;2022-07-03T16:47:24;5.47;;;1.85;;
3645;SDS011;1839;48.060;11.662;2022-07-03T16:49:51;4.68;;;1.50;;
3645;SDS011;1839;48.060;11.662;2022-07-03T16:52:19;6.82;;;1.95;;
3645;SDS011;1839;48.060;11.662;2022-07-03T16:54:48;7.63;;;1.77;;
3645;SDS011;1839;48.060;11.662;2022-07-03T16:57:16;5.20;;;1.75;;
3645;SDS011;1839;48.060;11.662;2022-07-03T16:59:44;7.63;;;1.65;;
3645;SDS011;1839;48.060;11.662;2022-07-03T17:02:13;5.20;;;1.83;;
3645;SDS011;1839;48.060;11.662;2022-07-03T17:04:41;5.25;;;1.90;;
3645;SDS011;1839;48.060;11.662;2022-07-03T17:07:09;4.57;;;1.58;;
3645;SDS011;1839;48.060;11.662;2022-07-03T17:09:37;4.85;;;1.23;;
3645;SDS011;1839;48.060;11.662;2022-07-03T17:12:05;4.90;;;1.40;;
3645;SDS011;1839;48.060;11.662;2022-07-03T17:14:33;4.05;;;1.40;;
3645;SDS011;1839;48.060;11.662;2022-07-03T17:17:03;7.90;;;1.83;;
3645;SDS011;1839;48.060;11.662;2022-07-03T17:19:31;7.88;;;1.98;;
3645;SDS011;1839;48.060;11.662;2022-07-03T17:21:59;5.43;;;1.73;;
3645;SDS011;1839;48.060;11.662;2022-07-03T17:24:28;4.70;;;1.70;;
3645;SDS011;1839;48.060;11.662;2022-07-03T17:26:57;4.50;;;1.50;;
3645;SDS011;1839;48.060;11.662;2022-07-03T17:29:28;7.60;;;1.70;;
3645;SDS011;1839;48.060;11.662;2022-07-03T17:31:56;4.77;;;1.77;;
3645;SDS011;1839;48.060;11.662;2022-07-03T17:34:24;5.83;;;1.83;;
3645;SDS011;1839;48.060;11.662;2022-07-03T17:36:53;4.67;;;1.47;;
3645;SDS011;1839;48.060;11.662;2022-07-03T17:39:20;4.70;;;1.80;;
3645;SDS011;1839;48.060;11.662;2022-07-03T17:41:49;6.30;;;1.80;;
3645;SDS011;1839;48.060;11.662;2022-07-03T17:44:17;4.70;;;1.60;;
3645;SDS011;1839;48.060;11.662;2022-07-03T17:46:44;6.30;;;2.13;;
3645;SDS011;1839;48.060;11.662;2022-07-03T17:49:14;5.27;;;1.70;;
3645;SDS011;1839;48.060;11.662;2022-07-03T17:51:42;6.53;;;2.03;;
3645;SDS011;1839;48.060;11.662;2022-07-03T17:54:11;5.68;;;1.77;;
3645;SDS011;1839;48.060;11.662;2022-07-03T17:56:38;5.40;;;1.90;;
3645;SDS011;1839;48.060;11.662;2022-07-03T17:59:06;4.30;;;1.80;;
3645;SDS011;1839;48.060;11.662;2022-07-03T18:01:33;4.50;;;1.60;;
3645;SDS011;1839;48.060;11.662;2022-07-03T18:04:00;5.40;;;1.75;;
3645;SDS011;1839;48.060;11.662;2022-07-03T18:06:29;4.72;;;1.70;;
3645;SDS011;1839;48.060;11.662;2022-07-03T18:09:01;4.15;;;1.38;;
3645;SDS011;1839;48.060;11.662;2022-07-03T18:11:32;8.05;;;1.50;;
3645;SDS011;1839;48.060;11.662;2022-07-03T18:14:03;5.72;;;1.80;;
3645;SDS011;1839;48.060;11.662;2022-07-03T18:16:32;3.15;;;1.10;;
3645;SDS011;1839;48.060;11.662;2022-07-03T18:19:00;3.60;;;1.42;;
3645;SDS011;1839;48.060;11.662;2022-07-03T18:21:27;3.55;;;1.50;;
3645;SDS011;1839;48.060;11.662;2022-07-03T18:23:55;6.50;;;1.60;;
3645;SDS011;1839;48.060;11.662;2022-07-03T18:26:25;4.53;;;1.80;;
3645;SDS011;1839;48.060;11.662;2022-07-03T18:28:53;4.60;;;1.65;;
3645;SDS011;1839;48.060;11.662;2022-07-03T18:31:21;6.40;;;1.88;;
3645;SDS011;1839;48.060;11.662;2022-07-03T18:33:48;4.57;;;1.60;;
3645;SDS011;1839;48.060;11.662;2022-07-03T18:36:16;4.25;;;1.52;;
3645;SDS011;1839;48.060;11.662;2022-07-03T18:38:44;9.73;;;2.00;;
3645;SDS011;1839;48.060;11.662;2022-07-03T18:41:11;5.30;;;1.90;;
3645;SDS011;1839;48.060;11.662;2022-07-03T18:43:41;5.20;;;1.77;;
3645;SDS011;1839;48.060;11.662;2022-07-03T18:46:08;11.27;;;2.73;;
3645;SDS011;1839;48.060;11.662;2022-07-03T18:48:35;7.53;;;2.10;;
3645;SDS011;1839;48.060;11.662;2022-07-03T18:51:06;8.90;;;2.40;;
3645;SDS011;1839;48.060;11.662;2022-07-03T18:53:37;7.70;;;2.20;;
3645;SDS011;1839;48.060;11.662;2022-07-03T18:56:09;8.13;;;1.97;;
3645;SDS011;1839;48.060;11.662;2022-07-03T18:58:39;6.90;;;1.97;;
3645;SDS011;1839;48.060;11.662;2022-07-03T19:01:09;6.50;;;1.83;;
3645;SDS011;1839;48.060;11.662;2022-07-03T19:03:40;6.23;;;2.00;;
3645;SDS011;1839;48.060;11.662;2022-07-03T19:06:12;5.97;;;1.63;;
3645;SDS011;1839;48.060;11.662;2022-07-03T19:08:44;6.00;;;1.83;;
3645;SDS011;1839;48.060;11.662;2022-07-03T19:11:16;6.90;;;2.00;;
3645;SDS011;1839;48.060;11.662;2022-07-03T19:13:45;8.17;;;2.17;;
3645;SDS011;1839;48.060;11.662;2022-07-03T19:16:14;9.83;;;2.17;;
3645;SDS011;1839;48.060;11.662;2022-07-03T19:18:42;7.17;;;2.10;;
3645;SDS011;1839;48.060;11.662;2022-07-03T19:21:09;11.90;;;2.23;;
3645;SDS011;1839;48.060;11.662;2022-07-03T19:23:36;10.93;;;2.60;;
3645;SDS011;1839;48.060;11.662;2022-07-03T19:26:03;7.73;;;2.27;;
3645;SDS011;1839;48.060;11.662;2022-07-03T19:28:31;8.47;;;2.80;;
3645;SDS011;1839;48.060;11.662;2022-07-03T19:30:58;7.97;;;2.40;;
3645;SDS011;1839;48.060;11.662;2022-07-03T19:33:27;10.93;;;2.70;;
3645;SDS011;1839;48.060;11.662;2022-07-03T19:35:54;8.60;;;3.07;;
3645;SDS011;1839;48.060;11.662;2022-07-03T19:38:21;9.70;;;2.50;;
3645;SDS011;1839;48.060;11.662;2022-07-03T19:40:48;8.00;;;2.50;;
3645;SDS011;1839;48.060;11.662;2022-07-03T19:43:16;10.13;;;2.70;;
3645;SDS011;1839;48.060;11.662;2022-07-03T19:45:43;12.10;;;3.23;;
3645;SDS011;1839;48.060;11.662;2022-07-03T19:48:10;8.47;;;2.70;;
3645;SDS011;1839;48.060;11.662;2022-07-03T19:50:39;13.20;;;2.30;;
3645;SDS011;1839;48.060;11.662;2022-07-03T19:53:06;10.23;;;3.77;;
3645;SDS011;1839;48.060;11.662;2022-07-03T19:55:33;9.40;;;4.00;;
3645;SDS011;1839;48.060;11.662;2022-07-03T19:58:00;9.20;;;3.60;;
3645;SDS011;1839;48.060;11.662;2022-07-03T20:00:27;16.00;;;4.20;;
3645;SDS011;1839;48.060;11.662;2022-07-03T20:02:55;9.77;;;3.97;;
3645;SDS011;1839;48.060;11.662;2022-07-03T20:05:22;9.60;;;3.70;;
3645;SDS011;1839;48.060;11.662;2022-07-03T20:07:51;9.60;;;4.37;;
3645;SDS011;1839;48.060;11.662;2022-07-03T20:10:18;9.50;;;2.93;;
3645;SDS011;1839;48.060;11.662;2022-07-03T20:12:45;10.33;;;5.10;;
3645;SDS011;1839;48.060;11.662;2022-07-03T20:15:12;11.50;;;5.40;;
3645;SDS011;1839;48.060;11.662;2022-07-03T20:17:40;9.30;;;4.43;;
3645;SDS011;1839;48.060;11.662;2022-07-03T20:20:07;10.00;;;4.80;;
3645;SDS011;1839;48.060;11.662;2022-07-03T20:22:35;9.40;;;3.93;;
3645;SDS011;1839;48.060;11.662;2022-07-03T20:25:04;10.60;;;4.67;;
3645;SDS011;1839;48.060;11.662;2022-07-03T20:27:31;11.37;;;5.73;;
3645;SDS011;1839;48.060;11.662;2022-07-03T20:29:58;12.00;;;5.37;;